CSUN New Campus Station -PST Time - Most Recent Data on bottom of page




           Date/Time      Avg      Avg      Max     Wind      Avg      Max      Min      Avg      Avg    Total      Avg     Batt
                         Wind     Wind     Wind      Dir     Temp     Temp     Temp       RH      Bar     Rain    Solar     Volt
                      Spd MPH      Dir  Spd MPH   at Max    Deg_F    Deg_F    Deg_F        % Press_mb   Inches     W/m2      Min
--------------------------------------------------------------------------------------------------------------------------------
    03/26/2015 00:00      0.0      320      0.8      327     62.6     63.0     62.0       40     1017     0.00        0     13.4
    03/26/2015 00:15      0.2      257      1.4      263     61.8     62.1     61.5       40     1017     0.00        0     13.4
    03/26/2015 00:30      0.5      275      3.0      335     62.3     62.8     61.7       37     1017     0.00        0     13.4
    03/26/2015 00:45      0.4      212      2.1      196     62.3     62.6     61.9       38     1017     0.00        0     13.4
    03/26/2015 01:00      0.2      333      2.1      349     61.9     62.2     61.8       36     1017     0.00        0     13.4
    03/26/2015 01:15      0.5      347      3.3      350     61.8     62.1     61.6       36     1017     0.00        0     13.4
    03/26/2015 01:30      0.6       18      2.3      347     62.1     62.4     61.9       35     1017     0.00        0     13.4
    03/26/2015 01:45      0.7      357      3.3      352     61.7     62.3     61.3       36     1017     0.00        0     13.4
    03/26/2015 02:00      1.0      323      3.6      344     61.4     61.8     61.0       35     1017     0.00        0     13.4
    03/26/2015 02:15      1.0      336      3.2      346     61.0     61.3     60.7       35     1017     0.00        0     13.4
    03/26/2015 02:30      0.7      334      3.8      350     60.6     61.1     59.4       39     1017     0.00        0     13.4
    03/26/2015 02:45      0.2      333      2.1      332     59.1     59.6     58.6       40     1017     0.00        0     13.4
    03/26/2015 03:00      0.0      269      0.6      269     58.3     58.7     57.9       40     1017     0.00        0     13.4
    03/26/2015 03:15      0.0      340      0.8      329     58.5     58.8     58.2       40     1017     0.00        0     13.5
    03/26/2015 03:30      0.1      332      1.4      351     58.1     58.6     57.6       39     1017     0.00        0     13.5
    03/26/2015 03:45      0.9      312      2.4      315     59.3     60.2     58.1       40     1017     0.00        0     13.5
    03/26/2015 04:00      0.0      329      1.1      333     58.0     58.3     57.6       39     1017     0.00        0     13.5
    03/26/2015 04:15      0.0      329      0.7      327     58.3     58.5     58.0       39     1017     0.00        0     13.5
    03/26/2015 04:30      0.3      344      1.7      355     57.8     58.2     57.4       38     1017     0.00        0     13.5
    03/26/2015 04:45      0.6      340      2.3      343     58.6     59.4     57.8       35     1017     0.00        0     13.5
    03/26/2015 05:00      0.1      355      2.1        0     58.1     59.2     57.6       38     1017     0.00        0     13.5
    03/26/2015 05:15      0.0        0      0.0       71     57.9     58.3     57.5       38     1017     0.00        0     13.5
    03/26/2015 05:30      0.1      156      1.8      156     57.1     57.9     56.2       41     1017     0.00        0     13.5
    03/26/2015 05:45      0.0      304      0.9      320     56.2     56.5     56.0       42     1017     0.00        1     13.5
    03/26/2015 06:00      0.3      246      2.0      346     56.0     56.7     55.6       45     1017     0.00        5     13.5
    03/26/2015 06:15      0.1      292      1.6      287     56.3     56.7     55.7       45     1018     0.00       13     13.5
    03/26/2015 06:30      0.2      271      1.8      280     56.9     57.7     56.3       41     1018     0.00       19     13.5
    03/26/2015 06:45      0.0        0      0.0      230     58.5     60.1     57.5       37     1018     0.00       93     13.5
    03/26/2015 07:00      0.0      151      0.7      157     63.2     64.8     60.1       30     1018     0.00      161     13.4
    03/26/2015 07:15      0.6      178      1.6      183     65.1     65.8     64.6       29     1018     0.00      213     13.4
    03/26/2015 07:30      0.2      196      2.2      212     66.7     67.9     65.6       29     1018     0.00      265     13.3
    03/26/2015 07:45      0.4      177      2.0      191     68.7     69.8     67.8       27     1018     0.00      317     13.3
    03/26/2015 08:00      0.6      183      2.2      198     70.7     71.5     69.6       24     1018     0.00      370     13.3
    03/26/2015 08:15      1.0      187      2.8      204     72.8     73.4     71.4       22     1018     0.00      421     13.2
    03/26/2015 08:30      1.0      191      2.4      187     74.6     75.4     73.2       18     1018     0.00      470     13.2
    03/26/2015 08:45      1.2      208      2.5      189     76.6     78.3     75.2       20     1018     0.00      519     13.2
    03/26/2015 09:00      1.8      307      8.5      256     79.9     81.7     78.1       12     1018     0.00      566     13.2
    03/26/2015 09:15      4.5      344     14.3      347     81.2     81.6     80.8       12     1018     0.00      610     13.1
    03/26/2015 09:30      3.9      337     11.2      341     82.2     83.0     81.4       12     1018     0.00      651     13.1
    03/26/2015 09:45      4.9      336     13.4        0     83.1     83.8     82.8       12     1018     0.00      688     13.1
    03/26/2015 10:00      4.8      351     14.3      355     84.3     84.9     83.6       11     1018     0.00      724     13.1
    03/26/2015 10:15      4.6      348     11.8      336     85.2     86.0     84.6       12     1018     0.00      754     13.1
    03/26/2015 10:30      3.3      352     12.1      336     86.3     87.0     85.1       12     1018     0.00      781     13.0
    03/26/2015 10:45      4.6      345     13.0      331     87.0     87.5     86.5       11     1018     0.00      804     13.0
    03/26/2015 11:00      4.0      328     10.3      328     87.8     88.3     87.2        9     1018     0.00      824     13.0
    03/26/2015 11:15      2.7      293      5.9      284     88.5     89.9     87.1       10     1018     0.00      838     13.0
    03/26/2015 11:30      2.5      328      7.7      336     89.4     89.9     88.6        9     1017     0.00      851     13.0
    03/26/2015 11:45      2.9      352      7.1      332     89.4     90.1     88.5        9     1017     0.00      859     13.0
    03/26/2015 12:00      4.0       43     16.8      338     89.7     90.4     88.7        9     1017     0.00      860     13.0
    03/26/2015 12:15      4.4      318     11.9      296     90.3     90.7     89.9       10     1017     0.00      856     13.0
    03/26/2015 12:30      4.8      354     21.1       16     90.8     91.3     90.4        9     1016     0.00      853     13.0
    03/26/2015 12:45      4.7        4     11.3       28     90.5     91.2     89.6        9     1016     0.00      845     13.0
    03/26/2015 13:00      4.2       36      9.3      354     90.3     90.9     89.3        8     1016     0.00      832     13.0
    03/26/2015 13:15      4.1       31     10.8       67     90.3     91.0     89.7        9     1016     0.00      815     13.0
    03/26/2015 13:30      2.7       20      8.2       39     90.7     91.7     90.1        8     1016     0.00      795     13.0
    03/26/2015 13:45      3.6       43      8.0      340     90.8     91.5     90.0        8     1016     0.00      772     13.0
    03/26/2015 14:00      5.5      321     18.8      327     91.2     91.6     90.5       10     1015     0.00      747     13.0
    03/26/2015 14:15      5.3       46     13.8       24     90.0     91.1     89.3        9     1015     0.00      709     13.0
    03/26/2015 14:30      2.0      166      6.2      159     90.5     91.2     90.1       10     1015     0.00      678     13.0
    03/26/2015 14:45      2.5       61      7.9      126     90.7     91.4     90.1       11     1015     0.00      642     13.0
    03/26/2015 15:00      3.7      163      7.8      136     90.7     91.6     90.0       10     1015     0.00      603     13.0
    03/26/2015 15:15      5.7      168     10.4      154     90.3     91.6     89.3       10     1015     0.00      561     13.0
    03/26/2015 15:30      4.7      135      8.9      138     90.2     90.7     89.7       10     1015     0.00      514     13.0
    03/26/2015 15:45      5.1      149      9.8      154     90.1     90.5     89.7       10     1015     0.00      466     13.0
    03/26/2015 16:00      5.0      150     10.7      168     89.9     90.3     89.2       10     1015     0.00      416     13.0
    03/26/2015 16:15      7.5      178     13.8      149     88.6     89.3     87.9       11     1015     0.00      352     13.0
    03/26/2015 16:30      6.7      170     10.3      179     88.0     88.3     87.7       11     1015     0.00      313     13.0
    03/26/2015 16:45      6.1      198     12.1      198     87.9     88.3     87.5       12     1015     0.00      261     13.0
    03/26/2015 17:00      4.0      242     12.0      227     86.8     87.7     86.5       12     1015     0.00      208     13.0
    03/26/2015 17:15      4.5      237     15.7      251     85.6     86.8     84.3       12     1015     0.00      160     13.0
    03/26/2015 17:30      4.8      225     10.8      228     83.8     84.6     82.8       12     1015     0.00      113     13.1
    03/26/2015 17:45      7.4      251     13.1      248     82.5     82.9     82.0       13     1015     0.00       64     13.1
    03/26/2015 18:00      6.2      259     14.0      259     81.5     82.2     80.8       14     1015     0.00       25     13.1
    03/26/2015 18:15      6.2      253     12.3      231     80.3     81.0     79.7       15     1015     0.00        6     13.1
    03/26/2015 18:30      4.5      249      8.8      246     79.3     79.9     78.6       15     1015     0.00        1     13.1
    03/26/2015 18:45      4.7      253     10.0      256     78.6     79.1     78.3       15     1016     0.00        0     13.2
    03/26/2015 19:00      4.2      255      8.3      257     78.3     78.6     77.9       14     1016     0.00        0     13.2
    03/26/2015 19:15      3.6      253      6.9      257     77.7     78.3     77.2       15     1016     0.00        0     13.2
    03/26/2015 19:30      2.4      268      6.2      261     77.1     77.7     76.7       15     1016     0.00        0     13.2
    03/26/2015 19:45      0.9      280      3.9      259     76.0     76.8     75.0       17     1016     0.00        0     13.2
    03/26/2015 20:00      0.1      301      1.8      284     74.3     75.1     73.3       20     1016     0.00        0     13.2
    03/26/2015 20:15      0.0        0      0.0      277     72.7     73.3     72.2       22     1016     0.00        0     13.3
    03/26/2015 20:30      0.0        0      0.0      276     72.4     72.7     72.1       24     1017     0.00        0     13.3
    03/26/2015 20:45      0.0        0      0.0      298     70.8     72.2     70.0       25     1017     0.00        0     13.3
    03/26/2015 21:00      0.0        0      0.0      260     70.2     70.6     69.7       26     1017     0.00        0     13.3
    03/26/2015 21:15      0.0        0      0.0      303     69.7     70.3     68.6       28     1017     0.00        0     13.3
    03/26/2015 21:30      0.3      300      2.1      300     68.7     69.1     68.3       28     1017     0.00        0     13.3
    03/26/2015 21:45      0.1      283      1.6      283     68.7     69.2     67.8       30     1017     0.00        0     13.3
    03/26/2015 22:00      0.2      315      1.5      284     67.7     68.0     67.2       31     1017     0.00        0     13.3
    03/26/2015 22:15      0.0      291      0.6      294     67.0     67.5     66.5       31     1017     0.00        0     13.3
    03/26/2015 22:30      0.4      324      1.7      330     67.0     67.3     66.6       30     1017     0.00        0     13.3
    03/26/2015 22:45      0.1      320      1.1      316     66.6     67.3     65.8       32     1017     0.00        0     13.3
    03/26/2015 23:00      0.0        0      0.0      325     64.9     65.9     64.3       34     1017     0.00        0     13.3
    03/26/2015 23:15      0.0        0      0.0      312     64.6     64.9     64.3       34     1017     0.00        0     13.4
    03/26/2015 23:30      0.0        0      0.0      353     64.8     65.0     64.5       35     1017     0.00        0     13.4
    03/26/2015 23:45      0.0        0      0.0       24     64.5     64.9     64.0       36     1017     0.00        0     13.4
    03/27/2015 00:00      0.0        0      0.0      346     63.7     64.3     62.8       37     1017     0.00        0     13.4
    03/27/2015 00:15      0.0        0      0.0      334     62.9     63.3     62.6       37     1017     0.00        0     13.4
    03/27/2015 00:30      0.0        0      0.0       48     63.3     63.6     62.8       37     1017     0.00        0     13.4
    03/27/2015 00:45      0.0        0      0.0       36     62.8     63.1     62.5       38     1017     0.00        0     13.4
    03/27/2015 01:00      0.0        0      0.0       53     62.3     63.0     61.8       38     1017     0.00        0     13.4
    03/27/2015 01:15      0.0        0      0.0       12     62.2     62.6     61.7       38     1017     0.00        0     13.4
    03/27/2015 01:30      0.0        0      0.0      325     61.9     62.1     61.7       39     1017     0.00        0     13.4
    03/27/2015 01:45      0.2      339      1.3      342     61.6     62.0     61.3       38     1017     0.00        0     13.4
    03/27/2015 02:00      1.5      346      2.7      347     62.0     62.7     61.5       36     1016     0.00        0     13.4
    03/27/2015 02:15      0.2      349      2.2      346     62.1     62.8     61.0       40     1016     0.00        0     13.4
    03/27/2015 02:30      0.4      338      1.6      340     60.9     61.3     60.4       41     1016     0.00        0     13.4
    03/27/2015 02:45      0.1      313      1.5      325     59.8     60.5     59.4       41     1016     0.00        0     13.4
    03/27/2015 03:00      0.1      338      1.5      345     59.6     60.0     59.1       42     1016     0.00        0     13.4
    03/27/2015 03:15      0.1      142      1.3      153     59.0     59.6     58.5       43     1016     0.00        0     13.4
    03/27/2015 03:30      0.0        0      0.0      144     58.8     59.1     58.3       44     1016     0.00        0     13.4
    03/27/2015 03:45      0.3      343      1.7      345     58.7     59.2     58.3       44     1016     0.00        0     13.5
    03/27/2015 04:00      0.4      338      1.5      332     59.0     59.3     58.8       43     1016     0.00        0     13.5
    03/27/2015 04:15      0.2      343      1.4      344     59.0     59.3     58.5       43     1016     0.00        0     13.4
    03/27/2015 04:30      0.1      345      1.1      341     57.9     58.8     57.5       45     1016     0.00        0     13.5
    03/27/2015 04:45      0.0        0      0.0        0     58.4     58.8     57.8       44     1016     0.00        0     13.5
    03/27/2015 05:00      0.0      337      0.2      334     59.0     59.4     58.6       42     1017     0.00        0     13.5
    03/27/2015 05:15      0.0        0      0.0      355     58.6     58.9     58.0       44     1017     0.00        0     13.5
    03/27/2015 05:30      0.0        0      0.0      337     57.8     58.1     57.4       44     1017     0.00        0     13.5
    03/27/2015 05:45      0.0        0      0.0      327     57.6     58.2     57.1       46     1017     0.00        1     13.5
    03/27/2015 06:00      0.0      338      1.3      342     57.5     57.8     57.1       45     1017     0.00        6     13.5
    03/27/2015 06:15      0.0        0      0.0      320     57.7     58.0     57.4       46     1017     0.00       13     13.5
    03/27/2015 06:30      0.6      344      1.6      346     58.3     59.4     57.6       44     1017     0.00       19     13.5
    03/27/2015 06:45      0.0        0      0.0      345     59.7     60.8     59.1       42     1017     0.00      101     13.5
    03/27/2015 07:00      0.0        0      0.0       44     62.9     65.0     60.7       37     1017     0.00      163     13.4
    03/27/2015 07:15      0.1      175      1.1      173     66.1     66.9     64.9       42     1017     0.00      214     13.4
    03/27/2015 07:30      0.4      159      1.7      157     68.0     69.4     66.8       34     1018     0.00      266     13.3
    03/27/2015 07:45      0.7      177      1.5      181     69.7     70.6     69.2       32     1018     0.00      318     13.3
    03/27/2015 08:00      0.0      171      0.7      170     72.7     74.1     70.5       24     1018     0.00      370     13.3
    03/27/2015 08:15      0.9      242      2.3      242     73.4     73.9     73.0       23     1018     0.00      420     13.2
    03/27/2015 08:30      1.1      235      2.4      237     74.5     75.3     73.5       21     1018     0.00      470     13.2
    03/27/2015 08:45      0.9      238      2.4      215     76.3     77.2     75.3       17     1018     0.00      518     13.2
    03/27/2015 09:00      1.3      188      3.4      188     77.7     78.7     77.0       17     1018     0.00      565     13.2
    03/27/2015 09:15      0.9      200      2.6      207     79.2     80.3     78.3       15     1018     0.00      608     13.1
    03/27/2015 09:30      1.0      184      3.6      205     80.3     81.3     79.6       16     1018     0.00      649     13.1
    03/27/2015 09:45      1.2      230      3.2      186     81.8     82.5     81.1       15     1018     0.00      685     13.1
    03/27/2015 10:00      1.9      180      4.4      191     83.0     84.2     81.9       13     1018     0.00      721     13.1
    03/27/2015 10:15      1.3      140      4.3      182     84.6     85.3     83.8       15     1018     0.00      752     13.1
    03/27/2015 10:30      1.6      184      3.8      138     85.4     85.9     84.5       12     1018     0.00      780     13.0
    03/27/2015 10:45      1.8      137      5.2      123     85.7     86.5     85.0       15     1018     0.00      804     13.0
    03/27/2015 11:00      1.5      194      4.4      261     87.6     88.5     86.5       13     1018     0.00      826     13.0
    03/27/2015 11:15      1.6      244      4.6      228     88.0     88.8     87.3       10     1017     0.00      838     13.0
    03/27/2015 11:30      3.6      193      8.1      190     88.4     89.3     87.4       11     1017     0.00      853     13.0
    03/27/2015 11:45      2.2      203      6.8      172     88.7     89.3     87.6        9     1017     0.00      860     13.0
    03/27/2015 12:00      2.9      174      8.2      199     89.2     89.9     89.0        9     1017     0.00      864     13.0
    03/27/2015 12:15      2.2      225      6.7      237     90.8     91.8     89.0        7     1017     0.00      867     13.0
    03/27/2015 12:30      1.8      219      5.0      242     90.8     91.3     90.4        9     1016     0.00      862     13.0
    03/27/2015 12:45      4.3      187      9.9      191     90.6     91.2     90.0        9     1016     0.00      851     13.0
    03/27/2015 13:00      2.8      126      8.9      201     91.3     92.7     90.2       10     1016     0.00      837     13.0
    03/27/2015 13:15      2.2      360      7.8      159     91.5     92.3     90.2        9     1016     0.00      819     13.0
    03/27/2015 13:30      5.2      208     11.6      252     91.6     92.4     91.0        8     1015     0.00      803     13.0
    03/27/2015 13:45      3.3      238     11.0      245     92.4     92.9     91.6        9     1015     0.00      776     13.0
    03/27/2015 14:00      6.7      276     14.3      270     91.3     92.2     90.7       10     1015     0.00      744     13.0
    03/27/2015 14:15      5.0      266     12.4      267     91.2     92.2     90.5        9     1015     0.00      714     13.0
    03/27/2015 14:30      7.3      264     14.8      243     90.9     91.5     90.2       10     1015     0.00      682     13.0
    03/27/2015 14:45      6.1      279     16.2      246     90.6     91.3     90.0       10     1015     0.00      647     13.0
    03/27/2015 15:00      6.9      266     18.0      260     90.3     91.0     89.6       10     1015     0.00      609     13.0
    03/27/2015 15:15      8.5      267     17.0      249     89.2     90.0     88.5       11     1015     0.00      567     13.0
    03/27/2015 15:30      8.2      267     16.8      243     88.7     89.3     87.9       12     1015     0.00      521     13.0
    03/27/2015 15:45      7.0      285     15.4      240     87.8     88.2     87.3       11     1015     0.00      472     13.0
    03/27/2015 16:00      7.5      276     15.5      259     86.8     87.7     86.3       13     1015     0.00      414     13.0
    03/27/2015 16:15      8.1      273     17.0      248     85.8     86.7     85.2       13     1015     0.00      371     13.0
    03/27/2015 16:30      6.9      271     14.0      260     85.3     85.8     84.9       13     1015     0.00      322     13.0
    03/27/2015 16:45      8.0      266     17.6      251     84.5     85.4     83.9       12     1015     0.00      268     13.0
    03/27/2015 17:00      7.1      269     16.9      239     83.6     84.0     83.2       13     1015     0.00      217     13.1
    03/27/2015 17:15      6.4      258     13.9      242     82.9     83.3     82.4       14     1015     0.00      166     13.1
    03/27/2015 17:30      5.2      254     11.0      240     82.4     82.7     82.1       14     1015     0.00      120     13.1
    03/27/2015 17:45      5.1      252     11.5      258     81.8     82.2     81.2       14     1015     0.00       69     13.1
    03/27/2015 18:00      4.8      248      9.3      243     80.8     81.4     80.0       15     1015     0.00       26     13.1
    03/27/2015 18:15      2.7      258      7.5      245     79.3     80.1     78.9       15     1015     0.00        6     13.1
    03/27/2015 18:30      2.8      267      7.3      241     78.5     79.1     77.9       16     1015     0.00        1     13.2
    03/27/2015 18:45      1.8      249      5.5      250     77.1     78.0     76.0       18     1015     0.00        0     13.2
    03/27/2015 19:00      0.9      225      3.3      208     75.2     76.2     74.3       18     1015     0.00        0     13.2
    03/27/2015 19:15      0.7      228      2.1      212     73.8     74.5     73.2       20     1016     0.00        0     13.2
    03/27/2015 19:30      0.3      234      3.1      261     73.0     73.4     72.6       20     1016     0.00        0     13.2
    03/27/2015 19:45      1.1      238      3.6      252     72.3     72.8     71.9       22     1016     0.00        0     13.3
    03/27/2015 20:00      0.7      210      2.9      203     72.2     72.7     71.8       23     1016     0.00        0     13.3
    03/27/2015 20:15      0.2      296      2.1      319     71.9     72.2     71.4       24     1016     0.00        0     13.3
    03/27/2015 20:30      0.1      323      1.4      336     71.3     71.7     70.9       25     1016     0.00        0     13.3
    03/27/2015 20:45      0.6      323      2.2      331     71.1     71.4     70.6       26     1016     0.00        0     13.3
    03/27/2015 21:00      0.8      318      2.2      304     70.3     70.7     70.0       25     1016     0.00        0     13.3
    03/27/2015 21:15      0.5      323      1.9      321     70.2     70.8     69.7       26     1016     0.00        0     13.3
    03/27/2015 21:30      0.0      317      0.6      308     68.7     69.8     68.1       28     1017     0.00        0     13.3
    03/27/2015 21:45      0.0       22      0.7      106     67.9     68.4     67.1       30     1017     0.00        0     13.3
    03/27/2015 22:00      0.1      345      1.6      347     66.3     67.3     65.8       32     1017     0.00        0     13.3
    03/27/2015 22:15      0.1      352      1.5      347     66.4     66.7     66.1       31     1017     0.00        0     13.3
    03/27/2015 22:30      0.3       37      2.6       54     66.2     66.7     65.8       30     1016     0.00        0     13.3
    03/27/2015 22:45      0.7       19      3.2        5     66.0     67.0     65.1       26     1016     0.00        0     13.4
    03/27/2015 23:00      1.4       22      3.8       19     67.1     67.8     66.5       24     1016     0.00        0     13.4
    03/27/2015 23:15      0.8       22      2.5       36     67.2     67.7     66.4       26     1017     0.00        0     13.4
    03/27/2015 23:30      0.7       31      2.4       41     66.2     66.7     65.2       28     1017     0.00        0     13.4
    03/27/2015 23:45      0.0       21      1.3       25     64.7     65.5     64.1       29     1017     0.00        0     13.4
    03/28/2015 00:00      0.8       86      2.7       69     63.8     64.3     63.5       30     1017     0.00        0     13.4
    03/28/2015 00:15      0.1       78      1.8       86     63.6     64.4     62.7       32     1017     0.00        0     13.4
    03/28/2015 00:30      0.0       80      0.8       66     62.3     63.0     61.7       34     1017     0.00        0     13.4
    03/28/2015 00:45      0.0       34      1.2       34     61.9     62.5     61.0       34     1016     0.00        0     13.4
    03/28/2015 01:00      0.0        0      0.0      262     60.7     61.1     60.4       35     1017     0.00        0     13.4
    03/28/2015 01:15      0.2      330      1.5      336     61.1     61.6     60.6       34     1017     0.00        0     13.4
    03/28/2015 01:30      0.6      340      1.9      345     61.6     62.0     61.3       33     1017     0.00        0     13.4
    03/28/2015 01:45      0.5      342      2.0      343     61.7     62.3     60.5       35     1017     0.00        0     13.4
    03/28/2015 02:00      0.5        4      2.9      339     60.3     60.7     59.9       34     1017     0.00        0     13.4
    03/28/2015 02:15      1.5       37      5.6       47     61.6     63.5     60.6       32     1016     0.00        0     13.4
    03/28/2015 02:30      0.2      287      2.1      260     60.5     62.1     59.5       38     1016     0.00        0     13.4
    03/28/2015 02:45      0.1      292      1.7      285     59.4     59.7     59.1       38     1016     0.00        0     13.4
    03/28/2015 03:00      0.0        0      0.0      336     59.5     59.9     58.8       39     1016     0.00        0     13.4
    03/28/2015 03:15      0.2      351      1.6      344     58.9     59.3     58.4       39     1016     0.00        0     13.4
    03/28/2015 03:30      0.0        0      0.0      343     58.8     59.0     58.6       40     1016     0.00        0     13.5
    03/28/2015 03:45      0.0      356      0.6        7     58.7     58.9     58.5       40     1016     0.00        0     13.5
    03/28/2015 04:00      0.0        0      0.0       53     58.5     59.0     57.9       41     1016     0.00        0     13.5
    03/28/2015 04:15      0.0      148      1.0      145     57.1     58.0     56.0       46     1016     0.00        0     13.5
    03/28/2015 04:30      0.0        0      0.0      127     55.9     56.1     55.6       45     1016     0.00        0     13.5
    03/28/2015 04:45      0.0        0      0.0      311     55.9     56.1     55.6       45     1017     0.00        0     13.5
    03/28/2015 05:00      0.0        0      0.0       78     55.9     56.3     55.4       47     1017     0.00        0     13.5
    03/28/2015 05:15      0.2      340      1.5      342     55.6     55.9     55.3       46     1017     0.00        0     13.5
    03/28/2015 05:30      0.7      341      2.1      345     56.2     56.8     55.5       45     1017     0.00        0     13.5
    03/28/2015 05:45      0.0      329      0.8      334     56.0     56.5     55.4       47     1017     0.00        1     13.5
    03/28/2015 06:00      0.0        0      0.0      321     55.1     55.5     54.7       50     1017     0.00        6     13.5
    03/28/2015 06:15      0.0      105      0.7      105     54.8     55.0     54.6       55     1017     0.00       15     13.5
    03/28/2015 06:30      0.0        0      0.0      105     54.6     55.0     54.3       53     1017     0.00       22     13.5
    03/28/2015 06:45      0.0        0      0.0       71     56.4     58.0     54.9       51     1017     0.00      111     13.5
    03/28/2015 07:00      0.0       54      1.1       60     60.1     62.9     57.9       40     1017     0.00      167     13.4
    03/28/2015 07:15      0.1       63      1.7       67     64.5     65.8     62.8       39     1017     0.00      217     13.4
    03/28/2015 07:30      0.1      120      1.6      155     66.3     67.0     65.7       40     1017     0.00      268     13.4
    03/28/2015 07:45      0.5      177      1.8      173     66.1     67.0     65.3       41     1017     0.00      320     13.3
    03/28/2015 08:00      0.2      260      1.6      328     66.7     67.7     65.5       39     1017     0.00      372     13.3
    03/28/2015 08:15      0.1      330      1.1      260     68.7     69.7     67.5       36     1017     0.00      424     13.3
    03/28/2015 08:30      0.1       26      1.3       49     70.4     71.5     69.4       33     1017     0.00      476     13.2
    03/28/2015 08:45      0.9       33      3.6       48     72.0     72.8     71.2       31     1017     0.00      524     13.2
    03/28/2015 09:00      1.1      105      4.1       85     73.1     73.8     72.2       29     1017     0.00      569     13.2
    03/28/2015 09:15      2.2      134      4.6      139     74.3     75.0     73.6       28     1017     0.00      612     13.2
    03/28/2015 09:30      1.8      169      5.0      169     75.3     76.3     74.4       26     1017     0.00      653     13.2
    03/28/2015 09:45      1.6      177      4.0      166     76.9     77.6     76.0       21     1017     0.00      691     13.1
    03/28/2015 10:00      1.8      113      4.2      141     78.0     79.1     77.3       23     1017     0.00      726     13.1
    03/28/2015 10:15      2.6      126      6.7       81     79.7     80.5     78.8       22     1017     0.00      759     13.1
    03/28/2015 10:30      2.2      114      6.1       90     80.1     81.3     79.0       19     1017     0.00      784     13.1
    03/28/2015 10:45      2.1      121      5.2       78     81.3     82.2     80.4       16     1017     0.00      809     13.1
    03/28/2015 11:00      2.9      116      7.1       95     82.4     83.3     81.6       16     1017     0.00      831     13.1
    03/28/2015 11:15      2.5      117      8.6       92     83.0     83.4     82.2       19     1017     0.00      837     13.0
    03/28/2015 11:30      3.5      145     10.6      143     83.9     84.4     83.3       23     1017     0.00      850     13.0
    03/28/2015 11:45      3.5      137      8.5      177     84.1     84.9     83.4       18     1017     0.00      858     13.0
    03/28/2015 12:00      3.7      160      8.3      147     84.6     85.6     83.1       16     1016     0.00      866     13.0
    03/28/2015 12:15      3.2      123      8.3      157     85.1     86.0     84.5       14     1016     0.00      865     13.0
    03/28/2015 12:30      4.9      111     10.2       95     84.8     85.9     84.1       13     1016     0.00      863     13.0
    03/28/2015 12:45      3.8      117     11.0      136     85.1     85.8     84.2       12     1016     0.00      858     13.0
    03/28/2015 13:00      5.1      132     12.1      158     86.2     86.7     85.6       10     1016     0.00      848     13.0
    03/28/2015 13:15      4.8      123     10.7      159     86.1     86.7     85.6       11     1016     0.00      834     13.0
    03/28/2015 13:30      4.7      131     12.8      156     86.2     86.8     85.7        9     1015     0.00      815     13.0
    03/28/2015 13:45      4.9      148     11.0      166     86.4     87.0     85.7       10     1015     0.00      795     13.0
    03/28/2015 14:00      5.0      140     12.1      157     86.3     86.8     85.6       11     1015     0.00      768     13.0
    03/28/2015 14:15      5.8      137     13.1      154     85.9     86.7     85.3       10     1015     0.00      737     13.0
    03/28/2015 14:30      5.0      120     12.0      115     86.3     86.7     85.8       10     1015     0.00      701     13.0
    03/28/2015 14:45      5.3      129     12.7      151     85.7     86.4     85.3       10     1015     0.00      664     13.0
    03/28/2015 15:00      5.4      145     14.4      164     86.0     86.6     85.0       11     1015     0.00      626     13.0
    03/28/2015 15:15      6.4      149     12.1      146     85.5     85.9     84.9        9     1015     0.00      581     13.0
    03/28/2015 15:30      5.3      131     11.7      141     84.9     85.4     84.4        9     1015     0.00      534     13.0
    03/28/2015 15:45      5.3      127     10.5      149     85.1     85.7     84.6        9     1015     0.00      484     13.0
    03/28/2015 16:00      4.8      124     10.9      140     84.5     85.1     83.9        9     1015     0.00      420     13.0
    03/28/2015 16:15      5.2      138     11.4      159     83.9     84.8     83.2        9     1015     0.00      383     13.0
    03/28/2015 16:30      5.7      140     11.1      150     83.5     84.2     83.0       11     1015     0.00      330     13.0
    03/28/2015 16:45      5.3      152      8.9      174     83.1     83.7     82.6       10     1015     0.00      277     13.0
    03/28/2015 17:00      4.2      150      7.7      151     82.7     83.1     82.0       10     1015     0.00      223     13.0
    03/28/2015 17:15      4.1      155      7.4      152     81.9     82.2     81.5       11     1015     0.00      172     13.1
    03/28/2015 17:30      3.3      139      6.6      108     81.4     81.8     81.1       10     1015     0.00      124     13.1
    03/28/2015 17:45      2.6      130      5.8      114     80.7     81.4     80.0       11     1015     0.00       74     13.1
    03/28/2015 18:00      1.7      135      4.3      172     79.5     80.3     78.8       12     1015     0.00       28     13.1
    03/28/2015 18:15      0.7      122      4.1      150     78.0     78.9     77.0       13     1015     0.00        6     13.1
    03/28/2015 18:30      0.7      109      2.8       83     76.3     77.1     75.4       14     1015     0.00        1     13.2
    03/28/2015 18:45      0.9       88      2.7       62     75.2     75.7     74.3       15     1015     0.00        0     13.2
    03/28/2015 19:00      0.9      111      2.7       70     74.3     74.9     72.9       17     1015     0.00        0     13.2
    03/28/2015 19:15      0.2      175      1.7      178     72.1     73.0     71.4       18     1015     0.00        0     13.2
    03/28/2015 19:30      0.0        0      0.0      177     70.9     71.5     70.4       21     1015     0.00        0     13.3
    03/28/2015 19:45      0.0        0      0.0      162     70.1     70.8     69.7       22     1015     0.00        0     13.3
    03/28/2015 20:00      0.0      201      0.8      169     69.5     70.0     69.0       23     1016     0.00        0     13.3
    03/28/2015 20:15      0.0        0      0.0      216     69.1     69.4     68.9       24     1016     0.00        0     13.3
    03/28/2015 20:30      0.0        0      0.0      235     68.4     69.2     67.7       26     1016     0.00        0     13.3
    03/28/2015 20:45      0.0       18      0.4       20     67.6     67.8     67.2       26     1016     0.00        0     13.3
    03/28/2015 21:00      0.8       44      2.6       33     66.5     67.2     66.1       26     1016     0.00        0     13.3
    03/28/2015 21:15      1.4       51      3.5       46     67.1     67.5     66.7       25     1016     0.00        0     13.3
    03/28/2015 21:30      1.7       47      4.0       14     66.8     67.1     66.4       27     1016     0.00        0     13.3
    03/28/2015 21:45      1.6       43      3.7       51     66.6     66.9     66.3       27     1016     0.00        0     13.3
    03/28/2015 22:00      0.3       42      2.6       60     65.8     66.5     65.2       30     1016     0.00        0     13.3
    03/28/2015 22:15      0.3       36      2.5       62     64.7     65.3     64.2       31     1016     0.00        0     13.4
    03/28/2015 22:30      0.4       18      1.8       21     64.1     64.5     63.1       34     1016     0.00        0     13.4
    03/28/2015 22:45      0.0        0      0.0      112     62.2     63.2     61.7       36     1016     0.00        0     13.4
    03/28/2015 23:00      0.0        0      0.0       17     61.4     61.8     61.0       37     1016     0.00        0     13.4
    03/28/2015 23:15      0.0        0      0.0      310     60.8     61.1     60.4       39     1016     0.00        0     13.4
    03/28/2015 23:30      0.0        0      0.0      297     60.1     60.6     59.9       39     1016     0.00        0     13.4
    03/28/2015 23:45      0.0      346      1.2      341     59.8     60.3     59.1       41     1016     0.00        0     13.4
    03/29/2015 00:00      0.1      342      1.3      343     59.3     59.7     58.9       41     1016     0.00        0     13.4
    03/29/2015 00:15      0.0        0      0.0      345     59.0     59.3     58.7       42     1016     0.00        0     13.4
    03/29/2015 00:30      0.0      340      0.9      340     59.0     59.3     58.7       42     1016     0.00        0     13.4
    03/29/2015 00:45      0.0        0      0.0        4     59.1     59.4     58.8       44     1016     0.00        0     13.4
    03/29/2015 01:00      0.0        0      0.0      350     58.6     59.3     57.9       46     1016     0.00        0     13.5
    03/29/2015 01:15      0.0        0      0.0       94     57.0     58.0     56.3       50     1016     0.00        0     13.5
    03/29/2015 01:30      0.1      340      1.0      340     56.8     57.3     56.3       49     1016     0.00        0     13.5
    03/29/2015 01:45      0.0        0      0.0      302     56.7     57.3     56.2       49     1016     0.00        0     13.5
    03/29/2015 02:00      0.0      350      0.6      349     56.7     57.0     56.5       48     1016     0.00        0     13.5
    03/29/2015 02:15      0.8      342      1.9      340     57.0     57.3     56.6       46     1015     0.00        0     13.5
    03/29/2015 02:30      0.1      346      1.1      345     57.3     57.4     57.1       46     1015     0.00        0     13.5
    03/29/2015 02:45      0.0        0      0.0      337     56.6     57.3     56.0       50     1015     0.00        0     13.5
    03/29/2015 03:00      0.0        0      0.0      355     55.6     56.2     55.2       51     1015     0.00        0     13.5
    03/29/2015 03:15      0.0        0      0.0      335     55.0     55.6     54.5       54     1015     0.00        0     13.5
    03/29/2015 03:30      0.0      247      0.9      248     54.7     55.1     54.1       55     1015     0.00        0     13.5
    03/29/2015 03:45      0.0      323      0.3      319     54.3     54.8     54.0       54     1015     0.00        0     13.5
    03/29/2015 04:00      0.0      288      0.8      287     54.1     54.8     53.8       55     1016     0.00        0     13.5
    03/29/2015 04:15      0.0        0      0.0       57     54.3     54.6     53.8       56     1015     0.00        0     13.5
    03/29/2015 04:30      0.1      340      1.3      343     53.7     54.0     53.4       57     1016     0.00        0     13.5
    03/29/2015 04:45      0.1      328      1.1      319     53.9     54.1     53.6       56     1016     0.00        0     13.5
    03/29/2015 05:00      0.0        0      0.0       15     53.7     54.1     53.2       56     1016     0.00        0     13.5
    03/29/2015 05:15      0.0      327      0.4      327     53.3     53.8     52.7       59     1016     0.00        0     13.5
    03/29/2015 05:30      0.1      342      1.0      347     53.1     53.5     52.7       58     1016     0.00        0     13.5
    03/29/2015 05:45      0.0        0      0.0        5     53.3     53.5     53.1       57     1016     0.00        1     13.5
    03/29/2015 06:00      0.0        0      0.0       39     53.3     53.7     52.7       60     1016     0.00        6     13.5
    03/29/2015 06:15      0.2       19      2.4       32     52.6     53.5     52.1       57     1016     0.00       16     13.5
    03/29/2015 06:30      1.1       59      3.0       74     55.1     56.0     53.5       51     1017     0.00       25     13.5
    03/29/2015 06:45      0.6       44      3.0       34     56.7     58.2     55.6       45     1017     0.00      122     13.5
    03/29/2015 07:00      0.5       32      3.2       42     60.0     61.2     58.2       43     1017     0.00      165     13.5
    03/29/2015 07:15      1.7       38      3.6       44     60.8     61.2     60.4       41     1017     0.00      159     13.4
    03/29/2015 07:30      0.1       26      1.7       31     61.3     62.6     60.5       39     1016     0.00      211     13.4
    03/29/2015 07:45      0.0       71      0.5       75     64.0     65.3     62.5       37     1016     0.00      295     13.3
    03/29/2015 08:00      0.3      232      1.8      249     64.6     65.3     64.0       37     1016     0.00      394     13.3
    03/29/2015 08:15      0.7      182      2.0      181     65.5     66.5     65.0       38     1016     0.00      420     13.3
    03/29/2015 08:30      1.3      200      3.1      187     66.4     66.7     66.1       39     1016     0.00      428     13.3
    03/29/2015 08:45      1.9      198      4.4      188     67.8     69.0     66.3       36     1016     0.00      532     13.2
    03/29/2015 09:00      1.1      179      3.1      182     68.9     69.6     68.1       34     1016     0.00      566     13.2
    03/29/2015 09:15      0.7      183      3.2      217     70.9     72.3     69.4       34     1016     0.00      607     13.2
    03/29/2015 09:30      1.2      176      2.9      140     73.2     73.8     72.3       30     1016     0.00      649     13.2
    03/29/2015 09:45      1.7      230      4.5      206     74.4     75.6     73.4       28     1016     0.00      704     13.2
    03/29/2015 10:00      1.4      209      4.6      208     75.8     76.8     75.0       27     1016     0.00      736     13.1
    03/29/2015 10:15      1.7      149      5.3      204     77.4     78.9     76.4       21     1016     0.00      766     13.1
    03/29/2015 10:30      3.1      155      6.5      144     78.8     79.7     77.9       16     1016     0.00      794     13.1
    03/29/2015 10:45      2.1      136      5.5       71     79.7     80.2     79.1       15     1016     0.00      816     13.1
    03/29/2015 11:00      2.5      153      4.8      194     80.5     81.6     79.7       13     1016     0.00      837     13.1
    03/29/2015 11:15      1.8      118      8.6      168     82.1     83.1     80.7       13     1016     0.00      850     13.1
    03/29/2015 11:30      2.6      157      5.7       69     82.3     82.9     81.3       15     1016     0.00      861     13.1
    03/29/2015 11:45      3.2      129      8.9      135     82.7     83.5     81.9       17     1016     0.00      860     13.0
    03/29/2015 12:00      4.1      154      9.8      167     83.4     83.8     82.9       14     1015     0.00      871     13.0
    03/29/2015 12:15      4.3      139     10.6      153     83.6     84.3     82.6       15     1015     0.00      870     13.0
    03/29/2015 12:30      4.2      127     12.0      153     84.6     85.1     84.0       13     1015     0.00      870     13.0
    03/29/2015 12:45      4.2      122     11.8      164     84.5     85.3     83.9       13     1015     0.00      864     13.0
    03/29/2015 13:00      4.6      140     10.3      160     84.8     85.4     84.0       10     1015     0.00      853     13.0
    03/29/2015 13:15      4.0      114      8.2       85     85.0     85.9     84.5       11     1015     0.00      834     13.0
    03/29/2015 13:30      4.1       98      7.8       83     85.4     86.2     84.1       10     1014     0.00      814     13.0
    03/29/2015 13:45      4.0      100      8.8      132     85.6     86.2     84.7        9     1014     0.00      794     13.0
    03/29/2015 14:00      5.1      138     10.5      147     85.4     86.1     84.5       10     1014     0.00      769     13.0
    03/29/2015 14:15      4.7      127      9.6      169     85.5     86.1     84.9        9     1014     0.00      739     13.0
    03/29/2015 14:30      4.9      100      9.1       84     84.7     85.1     84.3       10     1014     0.00      709     13.0
    03/29/2015 14:45      4.5      126      8.6      154     85.0     85.7     84.6       12     1014     0.00      612     13.0
    03/29/2015 15:00      4.3      126      8.6       81     85.1     85.6     84.6        9     1013     0.00      589     13.0
    03/29/2015 15:15      4.3      134     10.3       75     85.4     85.9     84.9       10     1013     0.00      584     13.0
    03/29/2015 15:30      4.7      115      9.3       84     85.1     85.6     84.8       11     1013     0.00      532     13.0
    03/29/2015 15:45      4.3      121      9.4      149     84.7     85.4     83.9       11     1013     0.00      483     13.0
    03/29/2015 16:00      4.0      113      9.4       98     84.5     85.1     83.5       11     1013     0.00      418     13.0
    03/29/2015 16:15      4.5      125     10.2      159     83.5     83.8     83.1       11     1013     0.00      377     13.0
    03/29/2015 16:30      5.0      116     10.3       87     82.8     83.4     82.3       13     1013     0.00      321     13.0
    03/29/2015 16:45      3.5      115      8.3       90     82.2     82.5     81.9       12     1013     0.00      265     13.0
    03/29/2015 17:00      3.0      132      7.5      147     81.8     82.2     81.4       13     1013     0.00      213     13.0
    03/29/2015 17:15      3.8      140      6.8      143     80.9     81.6     79.8       13     1013     0.00      163     13.1
    03/29/2015 17:30      3.8      136      7.1      134     79.8     80.0     79.5       14     1013     0.00      115     13.1
    03/29/2015 17:45      2.1      113      6.0      107     79.5     79.8     79.0       13     1013     0.00       68     13.1
    03/29/2015 18:00      2.2       96      6.2       76     78.5     79.3     77.7       14     1013     0.00       28     13.1
    03/29/2015 18:15      1.5      104      4.7      111     76.7     77.8     75.7       16     1014     0.00        7     13.1
    03/29/2015 18:30      0.8      112      3.3       69     75.1     75.8     73.9       18     1014     0.00        1     13.2
    03/29/2015 18:45      1.2       94      5.0       90     73.7     74.0     73.5       18     1014     0.00        0     13.2
    03/29/2015 19:00      1.9       77      4.9       88     73.2     73.7     72.5       24     1014     0.00        0     13.2
    03/29/2015 19:15      2.4       65      4.8       51     72.2     72.6     71.7       27     1014     0.00        0     13.2
    03/29/2015 19:30      1.7       67      4.9       45     71.5     72.0     71.1       29     1015     0.00        0     13.3
    03/29/2015 19:45      1.5       76      4.9       28     70.9     71.4     70.3       30     1015     0.00        0     13.3
    03/29/2015 20:00      0.8       94      3.2       90     69.8     70.5     69.0       33     1015     0.00        0     13.3
    03/29/2015 20:15      0.6       96      3.3      109     68.6     69.2     68.3       35     1015     0.00        0     13.3
    03/29/2015 20:30      0.0       96      0.8      107     67.8     68.4     67.1       38     1015     0.00        0     13.3
    03/29/2015 20:45      0.0        0      0.0      235     66.7     67.3     66.1       40     1015     0.00        0     13.3
    03/29/2015 21:00      0.1      353      1.4      307     66.0     66.3     65.8       42     1015     0.00        0     13.3
    03/29/2015 21:15      0.0        0      0.0       31     65.7     66.2     65.3       40     1015     0.00        0     13.3
    03/29/2015 21:30      0.0        0      0.0      344     65.5     65.8     65.1       41     1015     0.00        0     13.3
    03/29/2015 21:45      0.0        0      0.0       78     64.5     65.3     64.0       42     1015     0.00        0     13.3
    03/29/2015 22:00      0.0        0      0.0      118     63.2     64.2     62.5       45     1015     0.00        0     13.4
    03/29/2015 22:15      0.0      313      0.7      316     63.0     63.3     62.7       46     1015     0.00        0     13.4
    03/29/2015 22:30      0.0        0      0.0      316     62.6     63.2     62.0       48     1015     0.00        0     13.4